Terminal Aerodrome Forecast
Issued by NWS Twin Cities, MN

Home | Current Version | Previous Version | Text Only | Print | Product List | Glossary Off
Versions: 1 2 3 4 5 6 7 8 9 10 11 12

000
FTUS43 KMPX 011739
TAFEAU
TAF
KEAU 011739Z 0118/0218 22010KT P6SM -SHRA SCT050 BKN090
     FM020200 19005KT P6SM SCT060
     FM021500 21009KT P6SM SKC=

USA.gov is the U.S. government's official web portal to all federal, state and local government web resources and services.